Bookmark and Share
Track history (hours):
 

Isabella

Last reported at 2013-Feb-09 20:25 UTC. Time now 2014-Apr-19 05:17 UTC.
Position N 59°27' E 018°25'.
Warning: this ship's position is years out of date!

Length 171 m; draft 6.4 m.

Type: Passenger vessel. MMSI: 230159000.

NotesDate/timePositionNaut miles runAvg speedWind from/ knotsBaromVisibWave heightAir tempDewpointWater temp
2013-Feb-09 20:25N 59°27' E 018°25'6 6.5
2013-Feb-09 19:33N 59°23' E 018°18'7 7.0
2013-Feb-09 18:32N 59°19' E 018°06'2 1.8
2013-Feb-09 17:34N 59°19' E 018°09'10 8.8
2013-Feb-09 16:28N 59°25' E 018°25'8 0.4
2013-Feb-08 21:08N 59°32' E 018°33'813.2
2013-Feb-08 20:33N 59°26' E 018°23'8 7.9
2013-Feb-08 19:33N 59°20' E 018°13'4 3.8
2013-Feb-08 18:31N 59°19' E 018°06'2 2.1
2013-Feb-08 17:33N 59°19' E 018°10'9 8.5
2013-Feb-08 16:27N 59°25' E 018°25'8 0.4
2013-Feb-07 21:04N 59°32' E 018°33'713.4
2013-Feb-07 20:33N 59°27' E 018°25'7 7.5
2013-Feb-07 19:33N 59°21' E 018°15'5 4.7
2013-Feb-07 18:31N 59°19' E 018°06'2 2.4
2013-Feb-07 17:33N 59°19' E 018°10'9 9.1
2013-Feb-07 16:33N 59°25' E 018°25'2 0.1
2013-Feb-06 20:33N 59°26' E 018°24'8 7.5
2013-Feb-06 19:33N 59°21' E 018°14'5 4.6
2013-Feb-06 18:31N 59°19' E 018°06'2 1.9
2013-Feb-06 17:33N 59°19' E 018°10'10 9.1
2013-Feb-06 16:29N 59°24' E 018°26'3 0.1
2013-Feb-05 20:27N 59°27' E 018°26'7 7.3
2013-Feb-05 19:33N 59°22' E 018°18'7 6.8
2013-Feb-05 18:33N 59°19' E 018°06'2 1.5
2013-Feb-05 17:34N 59°19' E 018°09'10 8.7
2013-Feb-05 16:25N 59°25' E 018°25'2 0.1
2013-Feb-04 20:25N 59°27' E 018°26'6 7.0
2013-Feb-04 19:33N 59°22' E 018°19'7 7.2
2013-Feb-04 18:33N 59°19' E 018°06'2 1.5
2013-Feb-04 17:33N 59°19' E 018°09'10 9.4
2013-Feb-04 16:29N 59°24' E 018°26'3 0.1
2013-Feb-03 20:26N 59°27' E 018°26'6 6.9
2013-Feb-03 19:34N 59°22' E 018°19'7 7.2
2013-Feb-03 18:34N 59°19' E 018°06'2 1.7
2013-Feb-03 17:33N 59°19' E 018°09'10 9.9
2013-Feb-03 16:33N 59°24' E 018°27'4 0.2
2013-Feb-02 20:27N 59°27' E 018°26'6 7.2
2013-Feb-02 19:33N 59°22' E 018°18'7 7.0
2013-Feb-02 18:33N 59°19' E 018°06'2 2.1
2013-Feb-02 17:33N 59°19' E 018°10'9 9.1
2013-Feb-02 16:32N 59°25' E 018°25'102 7.8
2013-Feb-02 03:25N 60°11' E 021°26'10114.4
2013-Feb-01 20:25N 59°27' E 018°26'6 7.1
2013-Feb-01 19:33N 59°22' E 018°19'8 7.5
2013-Feb-01 18:34N 59°19' E 018°06'2 1.6
2013-Feb-01 17:33N 59°19' E 018°09'1010.0
2013-Feb-01 16:33N 59°24' E 018°27'3 0.2
2013-Jan-31 20:28N 59°27' E 018°25'7 7.2
2013-Jan-31 19:33N 59°22' E 018°17'6 6.2
2013-Jan-31 18:33N 59°19' E 018°06'2 1.6
2013-Jan-31 17:33N 59°19' E 018°09'10 8.3
2013-Jan-31 16:23N 59°25' E 018°24'8 0.4
2013-Jan-30 21:04N 59°32' E 018°33'713.2
2013-Jan-30 20:33N 59°27' E 018°25'  

Dump ship's entire track history

sailing weather and tide predictions

Isabella — OIZD — position and weather